sensor_id;sensor_type;location;lat;lon;timestamp;P1;durP1;ratioP1;P2;durP2;ratioP2
36551;SDS011;22559;54.176;12.102;2022-08-19T00:01:40;31.58;;;24.67;;
36551;SDS011;22559;54.176;12.102;2022-08-19T00:04:10;32.17;;;26.15;;
36551;SDS011;22559;54.176;12.102;2022-08-19T00:06:38;31.92;;;26.27;;
36551;SDS011;22559;54.176;12.102;2022-08-19T00:09:06;32.10;;;25.42;;
36551;SDS011;22559;54.176;12.102;2022-08-19T00:11:34;29.02;;;23.77;;
36551;SDS011;22559;54.176;12.102;2022-08-19T00:14:03;33.97;;;27.73;;
36551;SDS011;22559;54.176;12.102;2022-08-19T00:16:30;35.35;;;26.73;;
36551;SDS011;22559;54.176;12.102;2022-08-19T00:18:55;35.25;;;28.38;;
36551;SDS011;22559;54.176;12.102;2022-08-19T00:21:25;43.85;;;30.10;;
36551;SDS011;22559;54.176;12.102;2022-08-19T00:23:52;40.85;;;28.65;;
36551;SDS011;22559;54.176;12.102;2022-08-19T00:26:18;36.88;;;29.77;;
36551;SDS011;22559;54.176;12.102;2022-08-19T00:28:45;35.25;;;28.45;;
36551;SDS011;22559;54.176;12.102;2022-08-19T00:31:11;40.42;;;30.17;;
36551;SDS011;22559;54.176;12.102;2022-08-19T00:33:37;36.78;;;27.58;;
36551;SDS011;22559;54.176;12.102;2022-08-19T00:36:04;38.45;;;28.55;;
36551;SDS011;22559;54.176;12.102;2022-08-19T00:38:32;38.90;;;29.60;;
36551;SDS011;22559;54.176;12.102;2022-08-19T00:40:59;36.28;;;28.63;;
36551;SDS011;22559;54.176;12.102;2022-08-19T00:43:25;35.90;;;26.60;;
36551;SDS011;22559;54.176;12.102;2022-08-19T00:45:52;35.53;;;27.52;;
36551;SDS011;22559;54.176;12.102;2022-08-19T00:48:19;36.05;;;28.30;;
36551;SDS011;22559;54.176;12.102;2022-08-19T00:50:45;37.17;;;27.67;;
36551;SDS011;22559;54.176;12.102;2022-08-19T00:53:14;41.47;;;31.02;;
36551;SDS011;22559;54.176;12.102;2022-08-19T00:55:44;33.05;;;26.02;;
36551;SDS011;22559;54.176;12.102;2022-08-19T00:58:13;43.92;;;31.05;;
36551;SDS011;22559;54.176;12.102;2022-08-19T01:00:41;37.25;;;29.55;;
36551;SDS011;22559;54.176;12.102;2022-08-19T01:03:08;43.13;;;31.20;;
36551;SDS011;22559;54.176;12.102;2022-08-19T01:05:36;41.03;;;31.52;;
36551;SDS011;22559;54.176;12.102;2022-08-19T01:08:05;41.13;;;29.73;;
36551;SDS011;22559;54.176;12.102;2022-08-19T01:10:33;36.45;;;28.30;;
36551;SDS011;22559;54.176;12.102;2022-08-19T01:13:09;38.97;;;28.50;;
36551;SDS011;22559;54.176;12.102;2022-08-19T01:15:40;35.30;;;27.38;;
36551;SDS011;22559;54.176;12.102;2022-08-19T01:18:10;36.80;;;28.58;;
36551;SDS011;22559;54.176;12.102;2022-08-19T01:20:37;35.97;;;26.75;;
36551;SDS011;22559;54.176;12.102;2022-08-19T01:23:04;43.00;;;28.77;;
36551;SDS011;22559;54.176;12.102;2022-08-19T01:25:31;41.15;;;31.75;;
36551;SDS011;22559;54.176;12.102;2022-08-19T01:28:01;40.78;;;29.92;;
36551;SDS011;22559;54.176;12.102;2022-08-19T01:30:28;41.67;;;30.42;;
36551;SDS011;22559;54.176;12.102;2022-08-19T01:32:57;39.25;;;31.63;;
36551;SDS011;22559;54.176;12.102;2022-08-19T01:35:25;48.90;;;33.88;;
36551;SDS011;22559;54.176;12.102;2022-08-19T01:40:24;51.63;;;36.60;;
36551;SDS011;22559;54.176;12.102;2022-08-19T01:42:53;50.13;;;34.75;;
36551;SDS011;22559;54.176;12.102;2022-08-19T01:45:20;42.50;;;33.42;;
36551;SDS011;22559;54.176;12.102;2022-08-19T01:47:47;43.63;;;32.22;;
36551;SDS011;22559;54.176;12.102;2022-08-19T01:50:13;43.88;;;33.35;;
36551;SDS011;22559;54.176;12.102;2022-08-19T01:52:41;45.47;;;34.03;;
36551;SDS011;22559;54.176;12.102;2022-08-19T01:55:08;42.60;;;31.80;;
36551;SDS011;22559;54.176;12.102;2022-08-19T01:57:40;43.00;;;29.55;;
36551;SDS011;22559;54.176;12.102;2022-08-19T02:00:10;40.22;;;28.70;;
36551;SDS011;22559;54.176;12.102;2022-08-19T02:02:37;42.35;;;31.20;;
36551;SDS011;22559;54.176;12.102;2022-08-19T02:05:04;39.50;;;29.00;;
36551;SDS011;22559;54.176;12.102;2022-08-19T02:07:32;37.33;;;28.13;;
36551;SDS011;22559;54.176;12.102;2022-08-19T02:09:57;32.83;;;26.48;;
36551;SDS011;22559;54.176;12.102;2022-08-19T02:12:23;38.03;;;28.38;;
36551;SDS011;22559;54.176;12.102;2022-08-19T02:14:49;39.42;;;30.27;;
36551;SDS011;22559;54.176;12.102;2022-08-19T02:17:14;44.90;;;31.30;;
36551;SDS011;22559;54.176;12.102;2022-08-19T02:19:40;49.50;;;33.83;;
36551;SDS011;22559;54.176;12.102;2022-08-19T02:22:06;48.35;;;34.00;;
36551;SDS011;22559;54.176;12.102;2022-08-19T02:24:31;43.38;;;33.03;;
36551;SDS011;22559;54.176;12.102;2022-08-19T02:26:57;46.45;;;31.65;;
36551;SDS011;22559;54.176;12.102;2022-08-19T02:29:23;49.35;;;34.22;;
36551;SDS011;22559;54.176;12.102;2022-08-19T02:31:49;44.10;;;33.05;;
36551;SDS011;22559;54.176;12.102;2022-08-19T02:34:16;45.70;;;34.40;;
36551;SDS011;22559;54.176;12.102;2022-08-19T02:36:42;50.53;;;35.38;;
36551;SDS011;22559;54.176;12.102;2022-08-19T02:39:07;48.92;;;33.85;;
36551;SDS011;22559;54.176;12.102;2022-08-19T02:41:34;49.47;;;33.72;;
36551;SDS011;22559;54.176;12.102;2022-08-19T02:44:00;46.47;;;33.35;;
36551;SDS011;22559;54.176;12.102;2022-08-19T02:46:30;46.22;;;33.53;;
36551;SDS011;22559;54.176;12.102;2022-08-19T02:48:59;46.33;;;32.85;;
36551;SDS011;22559;54.176;12.102;2022-08-19T02:51:28;48.00;;;32.10;;
36551;SDS011;22559;54.176;12.102;2022-08-19T02:53:56;42.47;;;30.63;;
36551;SDS011;22559;54.176;12.102;2022-08-19T02:56:22;46.65;;;33.55;;
36551;SDS011;22559;54.176;12.102;2022-08-19T02:58:49;47.80;;;31.98;;
36551;SDS011;22559;54.176;12.102;2022-08-19T03:01:29;45.45;;;31.98;;
36551;SDS011;22559;54.176;12.102;2022-08-19T03:03:56;43.78;;;30.38;;
36551;SDS011;22559;54.176;12.102;2022-08-19T03:06:24;46.25;;;32.20;;
36551;SDS011;22559;54.176;12.102;2022-08-19T03:08:50;42.33;;;31.75;;
36551;SDS011;22559;54.176;12.102;2022-08-19T03:11:21;43.47;;;31.27;;
36551;SDS011;22559;54.176;12.102;2022-08-19T03:13:48;39.55;;;28.98;;
36551;SDS011;22559;54.176;12.102;2022-08-19T03:16:15;43.10;;;29.90;;
36551;SDS011;22559;54.176;12.102;2022-08-19T03:18:42;46.80;;;31.08;;
36551;SDS011;22559;54.176;12.102;2022-08-19T03:21:08;44.88;;;31.65;;
36551;SDS011;22559;54.176;12.102;2022-08-19T03:23:33;43.75;;;30.27;;
36551;SDS011;22559;54.176;12.102;2022-08-19T03:26:02;37.75;;;28.05;;
36551;SDS011;22559;54.176;12.102;2022-08-19T03:28:29;43.67;;;28.23;;
36551;SDS011;22559;54.176;12.102;2022-08-19T03:30:57;41.95;;;28.08;;
36551;SDS011;22559;54.176;12.102;2022-08-19T03:33:25;51.85;;;31.85;;
36551;SDS011;22559;54.176;12.102;2022-08-19T03:38:49;48.03;;;31.05;;
36551;SDS011;22559;54.176;12.102;2022-08-19T03:41:20;48.00;;;32.13;;
36551;SDS011;22559;54.176;12.102;2022-08-19T03:43:47;47.20;;;30.35;;
36551;SDS011;22559;54.176;12.102;2022-08-19T03:46:14;55.25;;;32.47;;
36551;SDS011;22559;54.176;12.102;2022-08-19T03:48:42;52.45;;;30.80;;
36551;SDS011;22559;54.176;12.102;2022-08-19T03:51:15;47.50;;;30.90;;
36551;SDS011;22559;54.176;12.102;2022-08-19T03:53:46;50.72;;;32.50;;
36551;SDS011;22559;54.176;12.102;2022-08-19T03:56:12;46.38;;;30.73;;
36551;SDS011;22559;54.176;12.102;2022-08-19T03:58:39;52.17;;;32.75;;
36551;SDS011;22559;54.176;12.102;2022-08-19T04:01:09;50.55;;;31.15;;
36551;SDS011;22559;54.176;12.102;2022-08-19T04:03:37;54.55;;;33.35;;
36551;SDS011;22559;54.176;12.102;2022-08-19T04:06:10;54.30;;;32.75;;
36551;SDS011;22559;54.176;12.102;2022-08-19T04:08:38;51.83;;;33.25;;
36551;SDS011;22559;54.176;12.102;2022-08-19T04:11:12;54.88;;;32.83;;
36551;SDS011;22559;54.176;12.102;2022-08-19T04:13:41;52.95;;;32.65;;
36551;SDS011;22559;54.176;12.102;2022-08-19T04:16:09;55.58;;;33.35;;
36551;SDS011;22559;54.176;12.102;2022-08-19T04:18:36;47.22;;;30.25;;
36551;SDS011;22559;54.176;12.102;2022-08-19T04:21:03;51.15;;;30.50;;
36551;SDS011;22559;54.176;12.102;2022-08-19T04:23:30;51.55;;;31.13;;
36551;SDS011;22559;54.176;12.102;2022-08-19T04:25:56;57.30;;;32.40;;
36551;SDS011;22559;54.176;12.102;2022-08-19T04:28:22;55.45;;;31.52;;
36551;SDS011;22559;54.176;12.102;2022-08-19T04:30:49;51.50;;;31.20;;
36551;SDS011;22559;54.176;12.102;2022-08-19T04:33:18;47.83;;;31.27;;
36551;SDS011;22559;54.176;12.102;2022-08-19T04:35:46;51.05;;;29.73;;
36551;SDS011;22559;54.176;12.102;2022-08-19T04:38:13;53.40;;;32.10;;
36551;SDS011;22559;54.176;12.102;2022-08-19T04:40:41;51.67;;;31.55;;
36551;SDS011;22559;54.176;12.102;2022-08-19T04:43:27;53.17;;;30.73;;
36551;SDS011;22559;54.176;12.102;2022-08-19T04:45:53;51.85;;;29.85;;
36551;SDS011;22559;54.176;12.102;2022-08-19T04:48:19;47.38;;;31.85;;
36551;SDS011;22559;54.176;12.102;2022-08-19T04:50:51;54.35;;;32.75;;
36551;SDS011;22559;54.176;12.102;2022-08-19T04:53:22;52.95;;;30.65;;
36551;SDS011;22559;54.176;12.102;2022-08-19T04:55:54;56.17;;;30.38;;
36551;SDS011;22559;54.176;12.102;2022-08-19T04:58:25;60.35;;;32.92;;
36551;SDS011;22559;54.176;12.102;2022-08-19T05:00:52;56.88;;;31.23;;
36551;SDS011;22559;54.176;12.102;2022-08-19T05:03:19;55.15;;;30.92;;
36551;SDS011;22559;54.176;12.102;2022-08-19T05:05:45;59.08;;;32.97;;
36551;SDS011;22559;54.176;12.102;2022-08-19T05:08:16;65.75;;;37.00;;
36551;SDS011;22559;54.176;12.102;2022-08-19T05:10:45;59.85;;;33.25;;
36551;SDS011;22559;54.176;12.102;2022-08-19T05:13:12;65.43;;;34.72;;
36551;SDS011;22559;54.176;12.102;2022-08-19T05:15:38;52.47;;;30.77;;
36551;SDS011;22559;54.176;12.102;2022-08-19T05:18:03;54.03;;;31.92;;
36551;SDS011;22559;54.176;12.102;2022-08-19T05:20:48;65.80;;;34.83;;
36551;SDS011;22559;54.176;12.102;2022-08-19T05:23:32;60.50;;;34.05;;
36551;SDS011;22559;54.176;12.102;2022-08-19T05:25:57;65.57;;;35.55;;
36551;SDS011;22559;54.176;12.102;2022-08-19T05:28:23;72.70;;;36.13;;
36551;SDS011;22559;54.176;12.102;2022-08-19T05:30:49;60.78;;;33.20;;
36551;SDS011;22559;54.176;12.102;2022-08-19T05:33:16;59.00;;;34.47;;
36551;SDS011;22559;54.176;12.102;2022-08-19T05:35:43;68.20;;;35.90;;
36551;SDS011;22559;54.176;12.102;2022-08-19T05:38:09;62.05;;;34.15;;
36551;SDS011;22559;54.176;12.102;2022-08-19T05:40:36;68.35;;;36.35;;
36551;SDS011;22559;54.176;12.102;2022-08-19T05:43:04;61.50;;;33.67;;
36551;SDS011;22559;54.176;12.102;2022-08-19T05:45:31;63.45;;;33.22;;
36551;SDS011;22559;54.176;12.102;2022-08-19T05:47:57;62.17;;;34.72;;
36551;SDS011;22559;54.176;12.102;2022-08-19T05:50:23;53.75;;;30.67;;
36551;SDS011;22559;54.176;12.102;2022-08-19T05:52:51;64.05;;;35.40;;
36551;SDS011;22559;54.176;12.102;2022-08-19T05:55:17;64.50;;;34.97;;
36551;SDS011;22559;54.176;12.102;2022-08-19T05:57:45;61.92;;;34.30;;
36551;SDS011;22559;54.176;12.102;2022-08-19T06:00:11;62.97;;;34.40;;
36551;SDS011;22559;54.176;12.102;2022-08-19T06:02:38;68.65;;;36.15;;
36551;SDS011;22559;54.176;12.102;2022-08-19T06:05:05;64.78;;;34.90;;
36551;SDS011;22559;54.176;12.102;2022-08-19T06:07:32;64.10;;;34.38;;
36551;SDS011;22559;54.176;12.102;2022-08-19T06:09:57;62.00;;;33.75;;
36551;SDS011;22559;54.176;12.102;2022-08-19T06:12:23;64.38;;;34.08;;
36551;SDS011;22559;54.176;12.102;2022-08-19T06:14:58;64.68;;;35.10;;
36551;SDS011;22559;54.176;12.102;2022-08-19T06:17:24;60.75;;;35.03;;
36551;SDS011;22559;54.176;12.102;2022-08-19T06:19:50;56.50;;;33.35;;
36551;SDS011;22559;54.176;12.102;2022-08-19T06:22:16;67.00;;;35.00;;
36551;SDS011;22559;54.176;12.102;2022-08-19T06:24:42;60.83;;;34.25;;
36551;SDS011;22559;54.176;12.102;2022-08-19T06:27:08;61.78;;;33.60;;
36551;SDS011;22559;54.176;12.102;2022-08-19T06:29:33;63.78;;;34.38;;
36551;SDS011;22559;54.176;12.102;2022-08-19T06:32:00;60.05;;;34.67;;
36551;SDS011;22559;54.176;12.102;2022-08-19T06:34:27;58.47;;;32.22;;
36551;SDS011;22559;54.176;12.102;2022-08-19T06:36:55;61.97;;;33.35;;
36551;SDS011;22559;54.176;12.102;2022-08-19T06:39:26;58.60;;;32.13;;
36551;SDS011;22559;54.176;12.102;2022-08-19T06:41:55;60.55;;;33.13;;
36551;SDS011;22559;54.176;12.102;2022-08-19T06:44:24;61.35;;;32.83;;
36551;SDS011;22559;54.176;12.102;2022-08-19T06:46:52;63.38;;;35.67;;
36551;SDS011;22559;54.176;12.102;2022-08-19T06:49:18;62.70;;;32.78;;
36551;SDS011;22559;54.176;12.102;2022-08-19T06:51:44;65.85;;;36.15;;
36551;SDS011;22559;54.176;12.102;2022-08-19T06:54:15;60.97;;;34.20;;
36551;SDS011;22559;54.176;12.102;2022-08-19T06:56:42;66.47;;;35.70;;
36551;SDS011;22559;54.176;12.102;2022-08-19T06:59:11;64.57;;;36.92;;
36551;SDS011;22559;54.176;12.102;2022-08-19T07:01:43;65.65;;;36.28;;
36551;SDS011;22559;54.176;12.102;2022-08-19T07:04:12;56.42;;;33.72;;
36551;SDS011;22559;54.176;12.102;2022-08-19T07:06:40;62.72;;;34.85;;
36551;SDS011;22559;54.176;12.102;2022-08-19T07:09:06;67.20;;;35.20;;
36551;SDS011;22559;54.176;12.102;2022-08-19T07:11:33;64.97;;;35.15;;
36551;SDS011;22559;54.176;12.102;2022-08-19T07:14:00;67.30;;;34.35;;
36551;SDS011;22559;54.176;12.102;2022-08-19T07:16:26;71.28;;;34.58;;
36551;SDS011;22559;54.176;12.102;2022-08-19T07:18:52;70.18;;;35.42;;
36551;SDS011;22559;54.176;12.102;2022-08-19T07:21:19;77.47;;;35.63;;
36551;SDS011;22559;54.176;12.102;2022-08-19T07:23:49;79.57;;;37.58;;
36551;SDS011;22559;54.176;12.102;2022-08-19T07:26:17;77.28;;;36.75;;
36551;SDS011;22559;54.176;12.102;2022-08-19T07:28:46;80.40;;;37.90;;
36551;SDS011;22559;54.176;12.102;2022-08-19T07:31:13;70.25;;;35.95;;
36551;SDS011;22559;54.176;12.102;2022-08-19T07:33:43;72.07;;;35.33;;
36551;SDS011;22559;54.176;12.102;2022-08-19T07:36:09;61.47;;;34.05;;
36551;SDS011;22559;54.176;12.102;2022-08-19T07:38:37;71.65;;;35.42;;
36551;SDS011;22559;54.176;12.102;2022-08-19T07:41:05;64.93;;;33.15;;
36551;SDS011;22559;54.176;12.102;2022-08-19T07:43:32;58.97;;;32.92;;
36551;SDS011;22559;54.176;12.102;2022-08-19T07:45:57;69.07;;;35.35;;
36551;SDS011;22559;54.176;12.102;2022-08-19T07:48:24;66.28;;;35.08;;
36551;SDS011;22559;54.176;12.102;2022-08-19T07:50:57;63.97;;;36.15;;
36551;SDS011;22559;54.176;12.102;2022-08-19T07:53:27;58.78;;;35.50;;
36551;SDS011;22559;54.176;12.102;2022-08-19T07:55:54;55.22;;;35.25;;
36551;SDS011;22559;54.176;12.102;2022-08-19T07:58:20;51.65;;;33.97;;
36551;SDS011;22559;54.176;12.102;2022-08-19T08:00:48;54.63;;;35.92;;
36551;SDS011;22559;54.176;12.102;2022-08-19T08:03:15;56.03;;;33.72;;
36551;SDS011;22559;54.176;12.102;2022-08-19T08:05:42;53.47;;;34.38;;
36551;SDS011;22559;54.176;12.102;2022-08-19T08:08:27;51.90;;;32.53;;
36551;SDS011;22559;54.176;12.102;2022-08-19T08:11:12;54.65;;;36.67;;
36551;SDS011;22559;54.176;12.102;2022-08-19T08:13:40;57.85;;;36.17;;
36551;SDS011;22559;54.176;12.102;2022-08-19T08:16:06;57.30;;;35.90;;
36551;SDS011;22559;54.176;12.102;2022-08-19T08:18:32;60.72;;;37.70;;
36551;SDS011;22559;54.176;12.102;2022-08-19T08:20:59;68.53;;;38.25;;
36551;SDS011;22559;54.176;12.102;2022-08-19T08:23:25;67.72;;;37.35;;
36551;SDS011;22559;54.176;12.102;2022-08-19T08:25:51;65.65;;;39.00;;
36551;SDS011;22559;54.176;12.102;2022-08-19T08:28:19;57.50;;;36.33;;
36551;SDS011;22559;54.176;12.102;2022-08-19T08:30:45;67.15;;;38.42;;
36551;SDS011;22559;54.176;12.102;2022-08-19T08:33:13;62.17;;;39.15;;
36551;SDS011;22559;54.176;12.102;2022-08-19T08:35:41;55.47;;;33.33;;
36551;SDS011;22559;54.176;12.102;2022-08-19T08:38:07;64.28;;;38.40;;
36551;SDS011;22559;54.176;12.102;2022-08-19T08:48:47;55.70;;;34.90;;
36551;SDS011;22559;54.176;12.102;2022-08-19T08:51:28;61.25;;;36.30;;
36551;SDS011;22559;54.176;12.102;2022-08-19T08:53:59;64.80;;;37.97;;
36551;SDS011;22559;54.176;12.102;2022-08-19T08:56:26;61.40;;;37.22;;
36551;SDS011;22559;54.176;12.102;2022-08-19T08:58:58;60.05;;;33.83;;
36551;SDS011;22559;54.176;12.102;2022-08-19T09:01:51;56.25;;;35.30;;
36551;SDS011;22559;54.176;12.102;2022-08-19T09:04:16;60.15;;;36.47;;
36551;SDS011;22559;54.176;12.102;2022-08-19T09:07:00;57.15;;;36.58;;
36551;SDS011;22559;54.176;12.102;2022-08-19T09:09:41;61.88;;;36.05;;
36551;SDS011;22559;54.176;12.102;2022-08-19T09:12:17;56.55;;;34.47;;
36551;SDS011;22559;54.176;12.102;2022-08-19T09:17:23;58.95;;;34.60;;
36551;SDS011;22559;54.176;12.102;2022-08-19T09:22:50;59.55;;;35.15;;
36551;SDS011;22559;54.176;12.102;2022-08-19T09:25:17;60.88;;;36.63;;
36551;SDS011;22559;54.176;12.102;2022-08-19T09:27:45;61.15;;;35.90;;
36551;SDS011;22559;54.176;12.102;2022-08-19T09:30:22;54.50;;;34.35;;
36551;SDS011;22559;54.176;12.102;2022-08-19T09:32:50;56.38;;;33.80;;
36551;SDS011;22559;54.176;12.102;2022-08-19T09:35:24;58.88;;;36.28;;
36551;SDS011;22559;54.176;12.102;2022-08-19T09:37:51;51.17;;;33.13;;
36551;SDS011;22559;54.176;12.102;2022-08-19T09:40:18;53.65;;;34.53;;
36551;SDS011;22559;54.176;12.102;2022-08-19T09:42:45;55.53;;;33.70;;
36551;SDS011;22559;54.176;12.102;2022-08-19T09:45:14;49.13;;;32.53;;
36551;SDS011;22559;54.176;12.102;2022-08-19T09:47:41;52.15;;;34.08;;
36551;SDS011;22559;54.176;12.102;2022-08-19T09:50:09;55.35;;;34.35;;
36551;SDS011;22559;54.176;12.102;2022-08-19T09:52:37;50.50;;;32.75;;
36551;SDS011;22559;54.176;12.102;2022-08-19T09:55:04;59.28;;;36.60;;
36551;SDS011;22559;54.176;12.102;2022-08-19T09:57:31;54.42;;;35.00;;
36551;SDS011;22559;54.176;12.102;2022-08-19T09:59:57;58.92;;;35.88;;
36551;SDS011;22559;54.176;12.102;2022-08-19T10:02:23;59.42;;;37.03;;
36551;SDS011;22559;54.176;12.102;2022-08-19T10:04:49;54.88;;;34.63;;
36551;SDS011;22559;54.176;12.102;2022-08-19T10:07:34;61.58;;;37.90;;
36551;SDS011;22559;54.176;12.102;2022-08-19T10:10:00;57.70;;;34.58;;
36551;SDS011;22559;54.176;12.102;2022-08-19T10:12:27;51.03;;;33.70;;
36551;SDS011;22559;54.176;12.102;2022-08-19T10:14:53;57.03;;;36.72;;
36551;SDS011;22559;54.176;12.102;2022-08-19T10:17:19;58.03;;;35.20;;
36551;SDS011;22559;54.176;12.102;2022-08-19T10:19:45;53.85;;;34.35;;
36551;SDS011;22559;54.176;12.102;2022-08-19T10:22:10;49.47;;;33.15;;
36551;SDS011;22559;54.176;12.102;2022-08-19T10:24:38;54.03;;;35.42;;
36551;SDS011;22559;54.176;12.102;2022-08-19T10:27:04;51.28;;;34.17;;
36551;SDS011;22559;54.176;12.102;2022-08-19T10:29:30;58.17;;;36.08;;
36551;SDS011;22559;54.176;12.102;2022-08-19T10:31:57;53.10;;;33.72;;
36551;SDS011;22559;54.176;12.102;2022-08-19T10:34:25;59.70;;;36.40;;
36551;SDS011;22559;54.176;12.102;2022-08-19T10:36:51;53.85;;;34.42;;
36551;SDS011;22559;54.176;12.102;2022-08-19T10:39:16;55.28;;;36.38;;
36551;SDS011;22559;54.176;12.102;2022-08-19T10:41:42;52.83;;;31.40;;
36551;SDS011;22559;54.176;12.102;2022-08-19T10:44:09;58.08;;;34.13;;
36551;SDS011;22559;54.176;12.102;2022-08-19T10:46:39;56.65;;;33.70;;
36551;SDS011;22559;54.176;12.102;2022-08-19T10:49:10;53.00;;;33.75;;
36551;SDS011;22559;54.176;12.102;2022-08-19T10:51:37;52.83;;;33.70;;
36551;SDS011;22559;54.176;12.102;2022-08-19T10:54:22;57.45;;;34.90;;
36551;SDS011;22559;54.176;12.102;2022-08-19T10:57:08;49.60;;;31.35;;
36551;SDS011;22559;54.176;12.102;2022-08-19T10:59:34;51.38;;;33.53;;
36551;SDS011;22559;54.176;12.102;2022-08-19T11:02:00;56.20;;;33.70;;
36551;SDS011;22559;54.176;12.102;2022-08-19T11:04:28;51.25;;;33.03;;
36551;SDS011;22559;54.176;12.102;2022-08-19T11:06:53;51.85;;;33.40;;
36551;SDS011;22559;54.176;12.102;2022-08-19T11:09:21;51.20;;;33.55;;
36551;SDS011;22559;54.176;12.102;2022-08-19T11:11:52;47.08;;;32.80;;
36551;SDS011;22559;54.176;12.102;2022-08-19T11:14:18;44.67;;;30.65;;
36551;SDS011;22559;54.176;12.102;2022-08-19T11:16:47;50.85;;;32.55;;
36551;SDS011;22559;54.176;12.102;2022-08-19T11:19:14;50.17;;;33.08;;
36551;SDS011;22559;54.176;12.102;2022-08-19T11:21:42;46.85;;;31.08;;
36551;SDS011;22559;54.176;12.102;2022-08-19T11:24:20;47.60;;;31.83;;
36551;SDS011;22559;54.176;12.102;2022-08-19T11:26:47;44.20;;;30.02;;
36551;SDS011;22559;54.176;12.102;2022-08-19T11:29:15;52.33;;;33.53;;
36551;SDS011;22559;54.176;12.102;2022-08-19T11:31:44;47.30;;;32.67;;
36551;SDS011;22559;54.176;12.102;2022-08-19T11:34:13;49.05;;;31.85;;
36551;SDS011;22559;54.176;12.102;2022-08-19T11:36:45;48.03;;;32.08;;
36551;SDS011;22559;54.176;12.102;2022-08-19T11:39:13;45.28;;;30.75;;
36551;SDS011;22559;54.176;12.102;2022-08-19T11:41:40;45.90;;;31.50;;
36551;SDS011;22559;54.176;12.102;2022-08-19T11:44:05;46.60;;;29.83;;
36551;SDS011;22559;54.176;12.102;2022-08-19T11:46:33;45.50;;;31.95;;
36551;SDS011;22559;54.176;12.102;2022-08-19T11:49:00;38.80;;;27.73;;
36551;SDS011;22559;54.176;12.102;2022-08-19T11:51:27;43.00;;;29.60;;
36551;SDS011;22559;54.176;12.102;2022-08-19T11:53:54;44.17;;;30.92;;
36551;SDS011;22559;54.176;12.102;2022-08-19T11:56:21;46.38;;;31.77;;
36551;SDS011;22559;54.176;12.102;2022-08-19T11:58:49;44.88;;;31.42;;
36551;SDS011;22559;54.176;12.102;2022-08-19T12:01:15;50.92;;;31.58;;
36551;SDS011;22559;54.176;12.102;2022-08-19T12:03:43;42.03;;;29.80;;
36551;SDS011;22559;54.176;12.102;2022-08-19T12:06:11;43.88;;;29.15;;
36551;SDS011;22559;54.176;12.102;2022-08-19T12:08:42;41.90;;;29.38;;
36551;SDS011;22559;54.176;12.102;2022-08-19T12:11:09;47.17;;;30.35;;
36551;SDS011;22559;54.176;12.102;2022-08-19T12:13:36;40.83;;;29.33;;
36551;SDS011;22559;54.176;12.102;2022-08-19T12:16:07;43.67;;;29.90;;
36551;SDS011;22559;54.176;12.102;2022-08-19T12:18:37;43.22;;;30.80;;
36551;SDS011;22559;54.176;12.102;2022-08-19T12:21:19;46.65;;;31.08;;
36551;SDS011;22559;54.176;12.102;2022-08-19T12:23:47;47.60;;;32.40;;
36551;SDS011;22559;54.176;12.102;2022-08-19T12:26:16;46.42;;;32.55;;
36551;SDS011;22559;54.176;12.102;2022-08-19T12:28:42;48.92;;;32.53;;
36551;SDS011;22559;54.176;12.102;2022-08-19T12:31:09;50.45;;;33.40;;
36551;SDS011;22559;54.176;12.102;2022-08-19T12:33:38;52.10;;;33.08;;
36551;SDS011;22559;54.176;12.102;2022-08-19T12:36:06;55.22;;;34.85;;
36551;SDS011;22559;54.176;12.102;2022-08-19T12:38:34;60.10;;;35.85;;
36551;SDS011;22559;54.176;12.102;2022-08-19T12:41:01;55.97;;;36.08;;
36551;SDS011;22559;54.176;12.102;2022-08-19T12:43:30;55.40;;;36.15;;
36551;SDS011;22559;54.176;12.102;2022-08-19T12:45:56;56.83;;;36.30;;
36551;SDS011;22559;54.176;12.102;2022-08-19T12:48:22;61.72;;;37.30;;
36551;SDS011;22559;54.176;12.102;2022-08-19T12:50:48;59.88;;;37.70;;
36551;SDS011;22559;54.176;12.102;2022-08-19T12:53:14;59.15;;;35.80;;
36551;SDS011;22559;54.176;12.102;2022-08-19T12:55:40;61.75;;;37.88;;
36551;SDS011;22559;54.176;12.102;2022-08-19T12:58:07;59.20;;;36.53;;
36551;SDS011;22559;54.176;12.102;2022-08-19T13:00:34;60.92;;;36.78;;
36551;SDS011;22559;54.176;12.102;2022-08-19T13:02:59;62.67;;;38.88;;
36551;SDS011;22559;54.176;12.102;2022-08-19T13:05:27;55.00;;;36.40;;
36551;SDS011;22559;54.176;12.102;2022-08-19T13:07:55;58.97;;;36.92;;
36551;SDS011;22559;54.176;12.102;2022-08-19T13:10:23;62.72;;;37.85;;
36551;SDS011;22559;54.176;12.102;2022-08-19T13:12:52;64.18;;;39.35;;
36551;SDS011;22559;54.176;12.102;2022-08-19T13:15:19;63.25;;;38.67;;
36551;SDS011;22559;54.176;12.102;2022-08-19T13:17:47;59.30;;;36.40;;
36551;SDS011;22559;54.176;12.102;2022-08-19T13:20:15;62.85;;;38.97;;
36551;SDS011;22559;54.176;12.102;2022-08-19T13:22:42;59.28;;;38.83;;
36551;SDS011;22559;54.176;12.102;2022-08-19T13:25:10;62.47;;;38.05;;
36551;SDS011;22559;54.176;12.102;2022-08-19T13:27:36;60.42;;;39.15;;
36551;SDS011;22559;54.176;12.102;2022-08-19T13:30:03;52.50;;;37.22;;
36551;SDS011;22559;54.176;12.102;2022-08-19T13:32:52;51.75;;;34.95;;
36551;SDS011;22559;54.176;12.102;2022-08-19T13:35:37;55.15;;;36.38;;
36551;SDS011;22559;54.176;12.102;2022-08-19T13:38:04;54.90;;;36.30;;
36551;SDS011;22559;54.176;12.102;2022-08-19T13:40:30;56.88;;;36.95;;
36551;SDS011;22559;54.176;12.102;2022-08-19T13:42:58;56.42;;;37.40;;
36551;SDS011;22559;54.176;12.102;2022-08-19T13:45:25;54.35;;;37.38;;
36551;SDS011;22559;54.176;12.102;2022-08-19T13:47:53;58.63;;;37.50;;
36551;SDS011;22559;54.176;12.102;2022-08-19T13:50:22;62.47;;;39.20;;
36551;SDS011;22559;54.176;12.102;2022-08-19T13:52:50;59.10;;;40.17;;
36551;SDS011;22559;54.176;12.102;2022-08-19T13:55:16;57.53;;;37.08;;
36551;SDS011;22559;54.176;12.102;2022-08-19T13:57:42;57.50;;;37.97;;
36551;SDS011;22559;54.176;12.102;2022-08-19T14:00:09;55.90;;;34.50;;
36551;SDS011;22559;54.176;12.102;2022-08-19T14:02:42;50.95;;;33.35;;
36551;SDS011;22559;54.176;12.102;2022-08-19T14:05:10;51.88;;;34.58;;
36551;SDS011;22559;54.176;12.102;2022-08-19T14:07:37;55.35;;;34.13;;
36551;SDS011;22559;54.176;12.102;2022-08-19T14:10:04;54.30;;;34.08;;
36551;SDS011;22559;54.176;12.102;2022-08-19T14:12:31;52.10;;;31.88;;
36551;SDS011;22559;54.176;12.102;2022-08-19T14:14:57;45.42;;;31.55;;
36551;SDS011;22559;54.176;12.102;2022-08-19T14:17:24;49.25;;;32.75;;
36551;SDS011;22559;54.176;12.102;2022-08-19T14:19:50;49.17;;;31.67;;
36551;SDS011;22559;54.176;12.102;2022-08-19T14:22:31;46.92;;;30.55;;
36551;SDS011;22559;54.176;12.102;2022-08-19T14:24:57;44.35;;;30.70;;
36551;SDS011;22559;54.176;12.102;2022-08-19T14:27:23;41.53;;;31.00;;
36551;SDS011;22559;54.176;12.102;2022-08-19T14:29:50;36.65;;;27.05;;
36551;SDS011;22559;54.176;12.102;2022-08-19T14:32:16;38.38;;;28.00;;
36551;SDS011;22559;54.176;12.102;2022-08-19T14:34:42;33.53;;;25.95;;